createdAt,value
2019-02-17T00:02:40.939Z,99.99
2019-02-17T00:07:37.086Z,99.99
2019-02-17T00:12:32.809Z,99.99
2019-02-17T00:17:29.153Z,99.99
2019-02-17T00:22:24.838Z,99.99
2019-02-17T00:27:21.131Z,99.99
2019-02-17T00:32:17.494Z,99.99
2019-02-17T00:37:12.671Z,99.99
2019-02-17T00:42:09.703Z,99.99
2019-02-17T00:47:06.024Z,99.99
2019-02-17T00:52:01.365Z,99.99
2019-02-17T00:56:56.990Z,99.99
2019-02-17T01:01:53.608Z,99.99
2019-02-17T01:06:49.174Z,99.99
2019-02-17T01:11:45.069Z,99.99
2019-02-17T01:16:41.434Z,99.99
2019-02-17T01:21:37.232Z,99.99
2019-02-17T01:26:32.724Z,99.99
2019-02-17T01:31:29.397Z,99.99
2019-02-17T01:36:25.704Z,99.99
2019-02-17T01:41:22.066Z,99.99
2019-02-17T01:46:17.676Z,99.99
2019-02-17T01:51:13.374Z,99.99
2019-02-17T01:56:09.190Z,99.99
2019-02-17T02:01:04.854Z,99.99
2019-02-17T02:06:00.590Z,99.99
2019-02-17T02:10:56.173Z,99.99
2019-02-17T02:15:52.477Z,99.99
2019-02-17T02:20:47.739Z,99.99
2019-02-17T02:25:44.437Z,99.99
2019-02-17T02:30:39.715Z,99.99
2019-02-17T02:35:35.957Z,99.99
2019-02-17T02:40:31.655Z,99.99
2019-02-17T02:45:27.874Z,99.99
2019-02-17T02:50:23.570Z,99.99
2019-02-17T02:55:21.241Z,99.99
2019-02-17T03:00:16.554Z,99.99
2019-02-17T03:05:11.957Z,99.99
2019-02-17T03:10:07.664Z,99.99
2019-02-17T03:15:03.402Z,99.99
2019-02-17T03:19:59.008Z,99.99
2019-02-17T03:24:54.751Z,99.99
2019-02-17T03:29:51.329Z,99.99
2019-02-17T03:34:47.348Z,99.99
2019-02-17T03:39:44.026Z,99.99
2019-02-17T03:44:39.481Z,99.99
2019-02-17T03:49:34.861Z,99.99
2019-02-17T03:54:29.924Z,99.99
2019-02-17T03:59:26.858Z,99.99
2019-02-17T04:04:23.145Z,99.99
2019-02-17T04:09:19.455Z,99.99
2019-02-17T04:14:15.618Z,99.99
2019-02-17T04:19:11.685Z,99.99
2019-02-17T04:24:07.374Z,99.99
2019-02-17T04:29:03.011Z,99.99
2019-02-17T04:33:59.245Z,99.99
2019-02-17T04:38:54.949Z,99.99
2019-02-17T04:43:50.658Z,99.99
2019-02-17T04:48:47.424Z,99.99
2019-02-17T04:53:43.216Z,99.99
2019-02-17T04:58:38.800Z,99.99
2019-02-17T05:03:34.897Z,99.99
2019-02-17T05:08:31.022Z,99.99
2019-02-17T05:13:26.515Z,99.99
2019-02-17T05:18:21.865Z,99.99
2019-02-17T05:23:17.481Z,99.99
2019-02-17T05:28:13.000Z,99.99
2019-02-17T05:33:08.974Z,99.99
2019-02-17T05:38:06.059Z,99.99
2019-02-17T05:43:02.431Z,99.99
2019-02-17T05:47:57.751Z,99.99
2019-02-17T05:52:53.425Z,99.99
2019-02-17T05:57:49.307Z,99.99
2019-02-17T06:02:45.777Z,99.99
2019-02-17T06:07:41.426Z,99.99
2019-02-17T06:12:36.962Z,99.99
2019-02-17T06:17:32.993Z,99.99
2019-02-17T06:22:28.856Z,99.99
2019-02-17T06:27:25.448Z,99.99
2019-02-17T06:32:20.887Z,99.99
2019-02-17T06:37:17.450Z,99.99
2019-02-17T06:42:12.645Z,99.99
2019-02-17T06:47:08.352Z,99.99
2019-02-17T06:52:03.873Z,99.99
2019-02-17T06:56:59.506Z,99.99
2019-02-17T07:01:54.965Z,99.99
2019-02-17T07:06:50.427Z,99.99
2019-02-17T07:11:46.173Z,99.99
2019-02-17T07:16:42.718Z,99.99
2019-02-17T07:21:37.947Z,99.99
2019-02-17T07:26:34.276Z,99.99
2019-02-17T07:31:35.041Z,99.99
2019-02-17T07:36:29.878Z,99.99
2019-02-17T07:41:26.163Z,99.99
2019-02-17T07:46:21.759Z,99.99
2019-02-17T07:51:17.565Z,99.99
2019-02-17T07:56:13.529Z,99.99
2019-02-17T08:01:09.796Z,99.99
2019-02-17T08:06:05.633Z,99.99
2019-02-17T08:11:03.969Z,99.99
2019-02-17T08:15:59.193Z,99.99
2019-02-17T08:20:54.939Z,99.99
2019-02-17T08:25:50.795Z,99.99
2019-02-17T08:30:46.544Z,99.99
2019-02-17T08:35:42.373Z,99.99
2019-02-17T08:40:37.690Z,99.99
2019-02-17T08:45:33.580Z,99.99
2019-02-17T08:50:29.787Z,99.99
2019-02-17T08:55:25.472Z,99.99
2019-02-17T09:00:21.314Z,99.99
2019-02-17T09:05:17.214Z,99.99
2019-02-17T09:10:13.215Z,99.99
2019-02-17T09:15:09.523Z,99.99
2019-02-17T09:20:04.749Z,99.99
2019-02-17T09:25:00.638Z,99.99
2019-02-17T09:29:56.774Z,99.99
2019-02-17T09:34:53.604Z,99.99
2019-02-17T09:39:49.392Z,99.99
2019-02-17T09:44:45.042Z,99.99
2019-02-17T09:49:41.222Z,99.99
2019-02-17T09:54:38.064Z,99.99
2019-02-17T09:59:34.624Z,99.99
2019-02-17T10:04:30.455Z,99.99
2019-02-17T10:09:26.441Z,99.99
2019-02-17T10:14:23.304Z,99.99
2019-02-17T10:19:19.033Z,99.99
2019-02-17T10:24:15.905Z,98.41
2019-02-17T10:29:13.423Z,97.51
2019-02-17T10:34:09.130Z,95.70
2019-02-17T10:39:06.302Z,93.08
2019-02-17T10:44:02.273Z,90.93
2019-02-17T10:48:59.044Z,89.50
2019-02-17T10:53:55.117Z,89.12
2019-02-17T10:58:51.389Z,86.30
2019-02-17T11:03:47.552Z,83.58
2019-02-17T11:08:43.512Z,82.63
2019-02-17T11:13:40.691Z,80.57
2019-02-17T11:18:36.345Z,80.09
2019-02-17T11:23:32.764Z,80.19
2019-02-17T11:28:28.796Z,78.60
2019-02-17T11:33:25.026Z,78.12
2019-02-17T11:38:22.121Z,75.78
2019-02-17T11:43:18.136Z,73.58
2019-02-17T11:48:14.284Z,72.08
2019-02-17T11:53:11.257Z,73.14
2019-02-17T11:58:06.650Z,74.44
2019-02-17T12:03:07.914Z,73.61
2019-02-17T12:08:01.326Z,73.61
2019-02-17T12:12:57.177Z,72.75
2019-02-17T12:17:54.056Z,72.75
2019-02-17T12:22:49.194Z,72.75
2019-02-17T12:27:46.101Z,70.68
2019-02-17T12:32:42.790Z,70.30
2019-02-17T12:37:38.217Z,69.25
2019-02-17T12:42:33.753Z,68.87
2019-02-17T12:47:29.977Z,68.62
2019-02-17T12:52:27.017Z,66.61
2019-02-17T12:57:22.907Z,66.61
2019-02-17T13:02:19.750Z,67.66
2019-02-17T13:07:15.371Z,66.32
2019-02-17T13:12:10.910Z,65.94
2019-02-17T13:17:07.320Z,65.65
2019-02-17T13:22:04.140Z,64.31
2019-02-17T13:26:59.462Z,64.22
2019-02-17T13:31:56.095Z,64.40
2019-02-17T13:36:51.582Z,64.88
2019-02-17T13:41:47.484Z,64.22
2019-02-17T13:46:43.442Z,65.84
2019-02-17T13:51:39.257Z,65.49
2019-02-17T13:56:36.321Z,64.05
2019-02-17T14:01:31.876Z,63.39
2019-02-17T14:06:27.748Z,62.23
2019-02-17T14:11:23.816Z,63.67
2019-02-17T14:16:19.508Z,63.19
2019-02-17T14:21:16.400Z,63.00
2019-02-17T14:26:12.861Z,63.76
2019-02-17T14:31:08.372Z,63.86
2019-02-17T14:36:04.152Z,64.34
2019-02-17T14:40:59.825Z,63.73
2019-02-17T14:45:55.619Z,63.76
2019-02-17T14:50:52.603Z,63.96
2019-02-17T14:55:48.026Z,61.28
2019-02-17T15:00:44.998Z,59.55
2019-02-17T15:05:41.908Z,57.54
2019-02-17T15:10:38.200Z,56.68
2019-02-17T15:15:33.892Z,58.50
2019-02-17T15:20:30.445Z,57.26
2019-02-17T15:25:25.954Z,57.80
2019-02-17T15:30:21.469Z,57.92
2019-02-17T15:35:17.576Z,59.91
2019-02-17T15:40:13.484Z,62.01
2019-02-17T15:45:09.080Z,64.37
2019-02-17T15:50:04.713Z,66.67
2019-02-17T15:55:00.430Z,66.76
2019-02-17T15:59:55.916Z,68.29
2019-02-17T16:04:51.572Z,68.93
2019-02-17T16:09:48.126Z,69.60
2019-02-17T16:14:43.635Z,68.64
2019-02-17T16:19:39.324Z,69.41
2019-02-17T16:24:35.048Z,71.86
2019-02-17T16:29:30.662Z,70.14
2019-02-17T16:34:26.303Z,70.61
2019-02-17T16:39:22.256Z,71.86
2019-02-17T16:44:18.050Z,72.49
2019-02-17T16:49:13.500Z,72.49
2019-02-17T16:54:09.107Z,73.69
2019-02-17T16:59:04.081Z,74.55
2019-02-17T17:03:59.657Z,75.42
2019-02-17T17:08:56.216Z,75.95
2019-02-17T17:13:51.394Z,78.05
2019-02-17T17:18:47.049Z,79.96
2019-02-17T17:23:43.137Z,78.86
2019-02-17T17:28:39.980Z,79.91
2019-02-17T17:33:35.653Z,84.49
2019-02-17T17:38:31.473Z,84.88
2019-02-17T17:43:28.145Z,82.01
2019-02-17T17:48:24.069Z,90.79
2019-02-17T17:53:19.448Z,90.45
2019-02-17T17:58:15.184Z,80.54
2019-02-17T18:03:11.869Z,79.59
2019-02-17T18:08:07.215Z,79.30
2019-02-17T18:13:03.524Z,79.78
2019-02-17T18:18:00.989Z,79.68
2019-02-17T18:22:56.378Z,80.41
2019-02-17T18:27:52.844Z,82.79
2019-02-17T18:32:48.039Z,83.93
2019-02-17T18:37:43.483Z,82.31
2019-02-17T18:42:39.141Z,82.31
2019-02-17T18:47:34.627Z,83.22
2019-02-17T18:52:31.297Z,82.79
2019-02-17T18:57:27.643Z,82.79
2019-02-17T19:02:24.483Z,82.60
2019-02-17T19:07:19.895Z,82.12
2019-02-17T19:12:15.232Z,80.12
2019-02-17T19:17:10.918Z,78.12
2019-02-17T19:22:06.723Z,76.44
2019-02-17T19:27:03.235Z,75.11
2019-02-17T19:31:59.001Z,75.45
2019-02-17T19:36:54.725Z,75.01
2019-02-17T19:41:50.897Z,75.74
2019-02-17T19:46:46.542Z,77.26
2019-02-17T19:51:42.050Z,77.89
2019-02-17T19:56:39.844Z,78.08
2019-02-17T20:01:34.552Z,79.70
2019-02-17T20:06:31.303Z,80.99
2019-02-17T20:11:26.568Z,82.14
2019-02-17T20:16:22.068Z,83.28
2019-02-17T20:21:17.781Z,84.70
2019-02-17T20:26:13.738Z,86.04
2019-02-17T20:31:09.185Z,85.90
2019-02-17T20:36:05.370Z,86.28
2019-02-17T20:41:02.172Z,87.42
2019-02-17T20:45:58.064Z,87.32
2019-02-17T20:50:53.632Z,88.28
2019-02-17T20:55:49.460Z,87.19
2019-02-17T21:00:46.157Z,87.38
2019-02-17T21:05:42.253Z,89.66
2019-02-17T21:10:37.137Z,88.71
2019-02-17T21:15:32.726Z,86.99
2019-02-17T21:20:28.272Z,86.38
2019-02-17T21:25:24.051Z,85.99
2019-02-17T21:30:20.909Z,85.71
2019-02-17T21:35:16.534Z,84.09
2019-02-17T21:40:13.361Z,83.52
2019-02-17T21:45:09.968Z,83.04
2019-02-17T21:50:06.853Z,82.80
2019-02-17T21:55:02.447Z,82.23
2019-02-17T21:59:58.244Z,82.14
2019-02-17T22:04:54.162Z,82.14
2019-02-17T22:09:49.776Z,82.51
2019-02-17T22:14:46.436Z,82.61
2019-02-17T22:19:41.719Z,82.32
2019-02-17T22:24:37.410Z,83.52
2019-02-17T22:29:33.565Z,85.80
2019-02-17T22:34:29.113Z,85.42
2019-02-17T22:39:24.723Z,86.43
2019-02-17T22:44:20.736Z,86.33
2019-02-17T22:49:16.998Z,87.09
2019-02-17T22:54:13.678Z,86.33
2019-02-17T22:59:10.750Z,86.24
2019-02-17T23:04:06.330Z,86.99
2019-02-17T23:09:02.035Z,85.86
2019-02-17T23:13:58.687Z,87.38
2019-02-17T23:18:54.167Z,87.38
2019-02-17T23:23:50.776Z,87.57
2019-02-17T23:28:46.815Z,87.38
2019-02-17T23:33:42.599Z,88.23
2019-02-17T23:38:39.294Z,88.67
2019-02-17T23:43:34.438Z,89.33
2019-02-17T23:48:31.104Z,90.00
2019-02-17T23:53:26.323Z,90.85
2019-02-17T23:58:22.301Z,91.33
